Time;durP1;ratioP1;P1;durP2;ratioP2;P2;SDS_P1;SDS_P2;PMS_P1;PMS_P2;Temp;Humidity;BMP_temperature;BMP_pressure;BME280_temperature;BME280_humidity;BME280_pressure;Samples;Min_cycle;Max_cycle;Signal;HPM_P1;HPM_P2
2023/12/18 00:02:25;;;;;;;2.85;1.92;;;;;;;;;;5056725;28;20055;-77
2023/12/18 00:04:51;;;;;;;3.20;2.28;;;;;;;;;;5056054;28;20040;-77
2023/12/18 00:07:17;;;;;;;2.42;1.85;;;;;;;;;;5056553;28;20021;-77
2023/12/18 00:09:43;;;;;;;3.38;1.98;;;;;;;;;;5058023;28;20096;-77
2023/12/18 00:12:09;;;;;;;3.08;2.08;;;;;;;;;;5061427;28;20029;-77
2023/12/18 00:14:37;;;;;;;2.70;1.85;;;;;;;;;;5069409;28;20036;-77
2023/12/18 00:17:03;;;;;;;2.75;1.60;;;;;;;;;;5071167;28;20032;-76
2023/12/18 00:19:29;;;;;;;2.85;2.00;;;;;;;;;;5064611;28;20031;-78
2023/12/18 00:21:56;;;;;;;2.47;1.75;;;;;;;;;;5055724;28;20043;-78
2023/12/18 00:24:22;;;;;;;2.38;1.70;;;;;;;;;;5058602;28;20049;-79
2023/12/18 00:26:48;;;;;;;3.05;2.03;;;;;;;;;;5057033;28;20021;-78
2023/12/18 00:29:14;;;;;;;2.67;1.77;;;;;;;;;;5053887;28;20103;-78
2023/12/18 00:31:40;;;;;;;2.28;1.80;;;;;;;;;;5053679;28;20111;-78
2023/12/18 00:34:06;;;;;;;2.55;1.80;;;;;;;;;;5056595;28;20021;-78
2023/12/18 00:36:32;;;;;;;2.17;1.65;;;;;;;;;;5054144;28;20032;-78
2023/12/18 00:38:58;;;;;;;3.33;1.90;;;;;;;;;;5052484;28;20021;-78
2023/12/18 00:41:24;;;;;;;5.03;2.10;;;;;;;;;;5054651;28;20027;-79
2023/12/18 00:43:50;;;;;;;2.72;1.55;;;;;;;;;;5054856;28;20021;-78
2023/12/18 00:46:17;;;;;;;2.30;1.42;;;;;;;;;;5056047;28;20036;-77
2023/12/18 00:48:43;;;;;;;1.73;1.58;;;;;;;;;;5054054;28;20025;-78
2023/12/18 00:51:11;;;;;;;1.65;1.35;;;;;;;;;;5055258;28;20036;-78
2023/12/18 00:53:37;;;;;;;2.03;1.65;;;;;;;;;;5053951;28;20024;-78
2023/12/18 00:56:04;;;;;;;2.75;1.50;;;;;;;;;;5051662;28;20079;-78
2023/12/18 00:58:30;;;;;;;2.10;1.40;;;;;;;;;;5052835;28;20033;-79
2023/12/18 01:00:56;;;;;;;2.13;1.58;;;;;;;;;;5055864;28;20506;-78
2023/12/18 01:03:22;;;;;;;2.42;1.65;;;;;;;;;;5054145;28;20029;-78
2023/12/18 01:05:49;;;;;;;3.17;1.98;;;;;;;;;;5074783;28;20044;-78
2023/12/18 01:08:15;;;;;;;1.98;1.55;;;;;;;;;;5059953;28;20025;-78
2023/12/18 01:10:41;;;;;;;3.08;2.20;;;;;;;;;;5055546;28;20025;-78
2023/12/18 01:13:07;;;;;;;2.42;1.77;;;;;;;;;;5055557;28;20033;-78
2023/12/18 01:15:33;;;;;;;3.10;2.08;;;;;;;;;;5052211;28;20025;-78
2023/12/18 01:17:59;;;;;;;2.38;1.90;;;;;;;;;;5063742;28;20031;-77
2023/12/18 01:20:25;;;;;;;2.15;1.80;;;;;;;;;;5073419;28;20017;-76
2023/12/18 01:22:51;;;;;;;2.67;1.65;;;;;;;;;;5065111;28;20033;-77
2023/12/18 01:25:17;;;;;;;1.73;1.48;;;;;;;;;;5055671;28;20033;-78
2023/12/18 01:27:44;;;;;;;2.75;1.70;;;;;;;;;;5063128;28;20024;-78
2023/12/18 01:30:10;;;;;;;2.90;1.77;;;;;;;;;;5054844;28;20028;-78
2023/12/18 01:32:36;;;;;;;2.67;1.67;;;;;;;;;;5046043;28;20031;-78
2023/12/18 01:35:02;;;;;;;2.38;1.73;;;;;;;;;;5051484;28;20025;-77
2023/12/18 01:37:28;;;;;;;2.08;1.40;;;;;;;;;;5053131;28;20028;-78
2023/12/18 01:39:54;;;;;;;1.50;1.38;;;;;;;;;;5057952;28;20025;-77
2023/12/18 01:42:21;;;;;;;2.60;1.50;;;;;;;;;;5063534;28;20040;-78
2023/12/18 01:44:48;;;;;;;2.15;1.30;;;;;;;;;;5074169;28;20036;-77
2023/12/18 01:47:15;;;;;;;2.63;1.65;;;;;;;;;;5077401;28;20819;-77
2023/12/18 01:49:41;;;;;;;1.85;1.50;;;;;;;;;;5078599;28;20015;-79
2023/12/18 01:52:08;;;;;;;2.50;2.00;;;;;;;;;;5075960;28;20048;-78
2023/12/18 01:54:34;;;;;;;2.92;2.10;;;;;;;;;;5075123;28;20104;-77
2023/12/18 01:57:02;;;;;;;1.67;1.40;;;;;;;;;;5078231;28;20277;-77
2023/12/18 01:59:28;;;;;;;3.22;1.98;;;;;;;;;;5087901;28;20009;-77
2023/12/18 02:01:55;;;;;;;3.88;1.90;;;;;;;;;;5079284;28;20088;-77
2023/12/18 02:04:21;;;;;;;1.73;1.52;;;;;;;;;;5078152;28;20025;-77
2023/12/18 02:06:48;;;;;;;1.48;1.38;;;;;;;;;;5077627;28;20036;-77
2023/12/18 02:09:15;;;;;;;3.05;2.33;;;;;;;;;;5066934;28;20016;-78
2023/12/18 02:11:44;;;;;;;3.15;2.17;;;;;;;;;;5063055;28;20081;-78
2023/12/18 02:14:10;;;;;;;4.28;1.90;;;;;;;;;;5062251;28;20032;-78
2023/12/18 02:16:36;;;;;;;3.70;2.20;;;;;;;;;;5060621;28;20059;-78
2023/12/18 02:19:02;;;;;;;3.10;1.90;;;;;;;;;;5061428;28;20056;-79
2023/12/18 02:21:28;;;;;;;3.60;1.80;;;;;;;;;;5060991;28;20043;-79
2023/12/18 02:23:55;;;;;;;4.00;2.20;;;;;;;;;;5059222;28;20020;-78
2023/12/18 02:26:21;;;;;;;2.30;1.60;;;;;;;;;;5057921;28;20039;-79
2023/12/18 02:28:48;;;;;;;2.03;1.58;;;;;;;;;;5056975;28;20021;-79
2023/12/18 02:31:14;;;;;;;3.00;1.63;;;;;;;;;;5058200;28;20021;-77
2023/12/18 02:33:41;;;;;;;3.40;1.80;;;;;;;;;;5057749;28;20017;-78
2023/12/18 02:36:07;;;;;;;2.17;1.58;;;;;;;;;;5057818;28;20043;-78
2023/12/18 02:38:34;;;;;;;2.35;1.60;;;;;;;;;;5060750;28;20021;-79
2023/12/18 02:41:00;;;;;;;2.90;1.58;;;;;;;;;;5060270;28;20094;-78
2023/12/18 02:43:26;;;;;;;3.15;1.50;;;;;;;;;;5059563;28;20475;-78
2023/12/18 02:45:52;;;;;;;2.30;1.50;;;;;;;;;;5053754;28;20549;-78
2023/12/18 02:48:18;;;;;;;1.70;1.40;;;;;;;;;;5059023;28;20029;-80
2023/12/18 02:50:44;;;;;;;1.80;1.50;;;;;;;;;;5057918;28;20024;-78
2023/12/18 02:53:11;;;;;;;2.53;1.38;;;;;;;;;;5059829;28;20025;-78
2023/12/18 02:55:37;;;;;;;1.95;1.30;;;;;;;;;;5055590;28;20089;-79
2023/12/18 02:58:04;;;;;;;1.35;1.25;;;;;;;;;;5057705;28;20032;-78
2023/12/18 03:00:30;;;;;;;1.55;1.33;;;;;;;;;;5069621;28;20086;-78
2023/12/18 03:02:56;;;;;;;1.60;1.15;;;;;;;;;;5059456;28;20025;-78
2023/12/18 03:05:22;;;;;;;1.88;1.10;;;;;;;;;;5057387;28;20383;-77
2023/12/18 03:07:48;;;;;;;0.95;0.88;;;;;;;;;;5061436;28;20021;-78
2023/12/18 03:10:15;;;;;;;1.20;0.95;;;;;;;;;;5074636;28;20048;-77
2023/12/18 03:12:41;;;;;;;1.45;0.98;;;;;;;;;;5076014;28;20029;-78
2023/12/18 03:15:08;;;;;;;1.48;0.93;;;;;;;;;;5074759;28;20032;-78
2023/12/18 03:17:34;;;;;;;2.88;2.05;;;;;;;;;;5072880;28;20023;-78
2023/12/18 03:20:00;;;;;;;1.85;1.40;;;;;;;;;;5070181;28;20048;-78
2023/12/18 03:22:26;;;;;;;2.97;1.50;;;;;;;;;;5086892;28;20036;-77
2023/12/18 03:24:52;;;;;;;1.27;0.90;;;;;;;;;;5074839;28;20035;-78
2023/12/18 03:27:18;;;;;;;3.30;1.60;;;;;;;;;;5072488;28;20058;-78
2023/12/18 03:29:45;;;;;;;2.17;1.70;;;;;;;;;;5061670;28;20502;-79
2023/12/18 03:32:11;;;;;;;2.30;1.40;;;;;;;;;;5061576;28;20136;-77
2023/12/18 03:34:37;;;;;;;2.30;1.48;;;;;;;;;;5058623;28;20017;-79
2023/12/18 03:37:03;;;;;;;3.17;1.73;;;;;;;;;;5063814;28;20525;-78
2023/12/18 03:39:29;;;;;;;2.20;1.80;;;;;;;;;;5067437;28;20048;-77
2023/12/18 03:41:57;;;;;;;2.50;1.73;;;;;;;;;;5056586;28;20088;-77
2023/12/18 03:44:23;;;;;;;3.17;1.80;;;;;;;;;;5056408;28;20025;-78
2023/12/18 03:46:49;;;;;;;2.25;1.60;;;;;;;;;;5054189;28;20025;-77
2023/12/18 03:49:15;;;;;;;2.75;1.80;;;;;;;;;;5055247;28;20074;-78
2023/12/18 03:51:41;;;;;;;2.35;1.48;;;;;;;;;;5056474;28;20016;-77
2023/12/18 03:54:07;;;;;;;2.67;1.50;;;;;;;;;;5055069;28;20020;-77
2023/12/18 03:56:34;;;;;;;2.28;1.63;;;;;;;;;;5054589;28;20091;-78
2023/12/18 03:59:00;;;;;;;2.38;1.60;;;;;;;;;;5055489;28;20029;-78
2023/12/18 04:01:32;;;;;;;2.15;1.30;;;;;;;;;;5056551;28;20048;-79
2023/12/18 04:03:58;;;;;;;1.75;1.40;;;;;;;;;;5057375;28;20025;-78
2023/12/18 04:06:24;;;;;;;2.05;1.35;;;;;;;;;;5057226;28;20051;-78
2023/12/18 04:08:50;;;;;;;3.30;1.58;;;;;;;;;;5056496;28;20036;-78
2023/12/18 04:11:17;;;;;;;2.28;1.73;;;;;;;;;;5069149;28;20039;-77
2023/12/18 04:13:43;;;;;;;1.83;1.52;;;;;;;;;;5066574;28;20029;-77
2023/12/18 04:16:09;;;;;;;1.50;1.00;;;;;;;;;;5058335;28;20025;-78
2023/12/18 04:18:35;;;;;;;1.90;1.20;;;;;;;;;;5060447;28;20446;-77
2023/12/18 04:21:02;;;;;;;1.95;1.10;;;;;;;;;;5068621;28;20023;-77
2023/12/18 04:23:28;;;;;;;2.90;1.40;;;;;;;;;;5076178;28;20009;-77
2023/12/18 04:25:54;;;;;;;1.60;1.02;;;;;;;;;;5075455;28;20043;-77
2023/12/18 04:28:20;;;;;;;1.33;1.20;;;;;;;;;;5073328;28;20092;-77
2023/12/18 04:30:46;;;;;;;1.30;0.98;;;;;;;;;;5073392;28;20025;-78
2023/12/18 04:33:12;;;;;;;1.20;1.10;;;;;;;;;;5075051;28;20027;-78
2023/12/18 04:35:38;;;;;;;0.98;0.80;;;;;;;;;;5072887;28;20021;-77
2023/12/18 04:38:05;;;;;;;1.77;0.95;;;;;;;;;;5064882;28;20400;-78
2023/12/18 04:40:31;;;;;;;1.13;0.98;;;;;;;;;;5061335;28;20433;-80
2023/12/18 04:42:57;;;;;;;1.85;1.05;;;;;;;;;;5055984;28;20025;-79
2023/12/18 04:45:23;;;;;;;0.82;0.80;;;;;;;;;;5056881;28;20025;-79
2023/12/18 04:47:49;;;;;;;1.50;1.02;;;;;;;;;;5059375;28;20023;-80
2023/12/18 04:50:15;;;;;;;1.08;0.60;;;;;;;;;;5058763;28;20021;-80
2023/12/18 04:52:42;;;;;;;1.88;0.82;;;;;;;;;;5059889;28;20108;-80
2023/12/18 04:55:08;;;;;;;1.00;0.70;;;;;;;;;;5054502;28;20083;-78
2023/12/18 04:57:35;;;;;;;0.93;0.80;;;;;;;;;;5059146;28;20021;-78
2023/12/18 05:00:02;;;;;;;0.85;0.80;;;;;;;;;;5059676;28;20031;-78
2023/12/18 05:02:28;;;;;;;0.90;0.70;;;;;;;;;;5057896;28;20029;-77
2023/12/18 05:04:55;;;;;;;1.85;0.88;;;;;;;;;;5059786;28;20032;-77
2023/12/18 05:07:21;;;;;;;0.30;0.30;;;;;;;;;;5049905;28;20028;-78
2023/12/18 05:09:47;;;;;;;1.75;1.00;;;;;;;;;;5070421;28;20082;-79
2023/12/18 05:12:13;;;;;;;0.93;0.75;;;;;;;;;;5069412;28;20021;-79
2023/12/18 05:14:39;;;;;;;0.85;0.60;;;;;;;;;;5070319;28;20025;-81
2023/12/18 05:17:05;;;;;;;0.85;0.70;;;;;;;;;;5074015;28;20107;-81
2023/12/18 05:19:31;;;;;;;1.48;0.70;;;;;;;;;;5077995;28;20085;-80
2023/12/18 05:21:58;;;;;;;0.70;0.70;;;;;;;;;;5074032;28;20067;-79
2023/12/18 05:24:24;;;;;;;0.60;0.60;;;;;;;;;;5064430;28;20067;-79
2023/12/18 05:26:50;;;;;;;0.70;0.68;;;;;;;;;;5062430;28;20029;-79
2023/12/18 05:29:16;;;;;;;0.57;0.50;;;;;;;;;;5060529;28;20021;-77
2023/12/18 05:31:42;;;;;;;0.98;0.50;;;;;;;;;;5060487;28;20071;-79
2023/12/18 05:34:08;;;;;;;0.85;0.60;;;;;;;;;;5041172;28;20097;-77
2023/12/18 05:36:34;;;;;;;0.43;0.43;;;;;;;;;;5057382;28;20021;-79
2023/12/18 05:39:01;;;;;;;1.15;0.60;;;;;;;;;;5057951;28;20406;-78
2023/12/18 05:41:27;;;;;;;0.70;0.60;;;;;;;;;;5059764;28;20364;-78
2023/12/18 05:43:53;;;;;;;0.70;0.68;;;;;;;;;;5057080;28;20029;-77
2023/12/18 05:46:19;;;;;;;1.30;0.85;;;;;;;;;;5048720;28;20035;-77
2023/12/18 05:48:45;;;;;;;0.60;0.60;;;;;;;;;;5059286;28;20025;-77
2023/12/18 05:51:18;;;;;;;1.08;0.77;;;;;;;;;;5057528;28;20059;-77
2023/12/18 05:53:44;;;;;;;1.35;0.65;;;;;;;;;;5056987;28;20017;-78
2023/12/18 05:56:11;;;;;;;1.13;0.80;;;;;;;;;;5057005;28;20031;-77
2023/12/18 05:58:37;;;;;;;0.60;0.60;;;;;;;;;;5056106;28;20108;-78
2023/12/18 06:01:03;;;;;;;1.00;0.90;;;;;;;;;;5056728;28;20029;-77
2023/12/18 06:03:29;;;;;;;0.85;0.68;;;;;;;;;;5064369;28;20178;-78
2023/12/18 06:05:55;;;;;;;1.77;1.25;;;;;;;;;;5058402;28;20029;-78
2023/12/18 06:08:21;;;;;;;1.30;0.88;;;;;;;;;;5047390;28;20029;-77
2023/12/18 06:10:48;;;;;;;1.58;0.95;;;;;;;;;;5057475;28;20018;-77
2023/12/18 06:13:14;;;;;;;1.35;0.93;;;;;;;;;;5056733;28;20025;-77
2023/12/18 06:15:40;;;;;;;1.10;0.68;;;;;;;;;;5059056;28;20021;-78
2023/12/18 06:18:07;;;;;;;1.83;1.10;;;;;;;;;;5058770;28;20029;-78
2023/12/18 06:20:33;;;;;;;1.15;0.80;;;;;;;;;;5060332;28;20021;-78
2023/12/18 06:22:59;;;;;;;1.30;1.10;;;;;;;;;;5058569;28;20427;-78
2023/12/18 06:25:25;;;;;;;1.33;0.90;;;;;;;;;;5057526;28;20387;-78
2023/12/18 06:27:51;;;;;;;2.20;1.10;;;;;;;;;;5070961;28;20025;-77
2023/12/18 06:30:18;;;;;;;0.77;0.63;;;;;;;;;;5057759;28;20483;-78
2023/12/18 06:32:44;;;;;;;1.45;0.82;;;;;;;;;;5065858;28;20081;-78
2023/12/18 06:35:10;;;;;;;0.88;0.88;;;;;;;;;;5060783;28;20182;-78
2023/12/18 06:37:36;;;;;;;2.08;1.00;;;;;;;;;;5059959;28;20428;-77
2023/12/18 06:40:03;;;;;;;0.70;0.70;;;;;;;;;;5056726;28;20044;-77
2023/12/18 06:42:30;;;;;;;0.85;0.82;;;;;;;;;;5057481;28;20021;-78
2023/12/18 06:44:56;;;;;;;1.25;0.77;;;;;;;;;;5060904;28;20048;-77
2023/12/18 06:47:22;;;;;;;1.58;1.00;;;;;;;;;;5050333;28;20442;-79
2023/12/18 06:49:48;;;;;;;1.38;0.70;;;;;;;;;;5060946;28;20025;-78
2023/12/18 06:52:14;;;;;;;1.90;0.90;;;;;;;;;;5060221;28;20330;-79
2023/12/18 06:54:40;;;;;;;1.13;1.00;;;;;;;;;;5062023;28;20048;-78
2023/12/18 06:57:07;;;;;;;1.13;1.00;;;;;;;;;;5077004;28;20025;-77
2023/12/18 06:59:33;;;;;;;0.88;0.70;;;;;;;;;;5077888;28;20163;-77
2023/12/18 07:01:59;;;;;;;0.95;0.73;;;;;;;;;;5060574;28;20046;-78
2023/12/18 07:04:25;;;;;;;1.08;0.70;;;;;;;;;;5059918;28;20021;-78
2023/12/18 07:06:51;;;;;;;0.68;0.60;;;;;;;;;;5059724;28;20044;-78
2023/12/18 07:09:18;;;;;;;0.77;0.77;;;;;;;;;;5056579;28;20373;-77
2023/12/18 07:11:44;;;;;;;1.13;1.00;;;;;;;;;;5065237;28;20021;-79
2023/12/18 07:14:10;;;;;;;0.90;0.70;;;;;;;;;;5059499;28;20028;-78
2023/12/18 07:16:36;;;;;;;1.33;0.85;;;;;;;;;;5059135;28;20020;-77
2023/12/18 07:19:02;;;;;;;0.70;0.65;;;;;;;;;;5065992;28;20028;-78
2023/12/18 07:21:28;;;;;;;0.80;0.80;;;;;;;;;;5059979;28;20061;-78
2023/12/18 07:23:54;;;;;;;1.20;0.93;;;;;;;;;;5079510;28;20025;-78
2023/12/18 07:26:21;;;;;;;0.80;0.70;;;;;;;;;;5073773;28;20037;-79
2023/12/18 07:28:48;;;;;;;0.60;0.60;;;;;;;;;;5056043;28;20020;-78
2023/12/18 07:31:14;;;;;;;0.57;0.57;;;;;;;;;;5075750;28;20076;-78
2023/12/18 07:33:40;;;;;;;1.08;0.60;;;;;;;;;;5062259;28;20078;-79
2023/12/18 07:36:06;;;;;;;0.82;0.60;;;;;;;;;;5059166;28;20024;-79
2023/12/18 07:38:33;;;;;;;1.85;0.80;;;;;;;;;;5059806;28;20025;-78
2023/12/18 07:40:59;;;;;;;0.77;0.50;;;;;;;;;;5059524;28;20032;-78
2023/12/18 07:43:25;;;;;;;0.90;0.65;;;;;;;;;;5070373;28;20049;-78
2023/12/18 07:45:51;;;;;;;1.17;0.70;;;;;;;;;;5054706;28;20089;-78
2023/12/18 07:48:21;;;;;;;1.58;0.80;;;;;;;;;;5059406;28;20029;-79
2023/12/18 07:50:47;;;;;;;0.70;0.70;;;;;;;;;;5057456;28;20017;-78
2023/12/18 07:53:13;;;;;;;0.93;0.70;;;;;;;;;;5059552;28;20027;-77
2023/12/18 07:55:40;;;;;;;0.85;0.80;;;;;;;;;;5060934;28;20024;-79
2023/12/18 07:58:06;;;;;;;0.70;0.70;;;;;;;;;;5062654;28;20028;-79
2023/12/18 08:00:32;;;;;;;0.50;0.50;;;;;;;;;;5059867;28;20048;-78
2023/12/18 08:03:01;;;;;;;0.73;0.73;;;;;;;;;;5069045;28;20021;-78
2023/12/18 08:05:28;;;;;;;0.77;0.52;;;;;;;;;;5063290;28;20025;-79
2023/12/18 08:07:54;;;;;;;1.23;0.45;;;;;;;;;;5070067;28;20047;-79
2023/12/18 08:10:21;;;;;;;0.50;0.50;;;;;;;;;;5070774;28;20024;-79
2023/12/18 08:12:50;;;;;;;0.82;0.47;;;;;;;;;;5071692;28;20021;-79
2023/12/18 08:15:16;;;;;;;0.60;0.52;;;;;;;;;;5068936;28;20017;-79
2023/12/18 08:17:42;;;;;;;1.13;0.60;;;;;;;;;;5069865;28;20021;-77
2023/12/18 08:20:09;;;;;;;0.60;0.50;;;;;;;;;;5077338;28;20036;-78
2023/12/18 08:22:35;;;;;;;0.63;0.50;;;;;;;;;;5060568;28;20020;-78
2023/12/18 08:25:04;;;;;;;0.85;0.73;;;;;;;;;;5058878;28;20059;-78
2023/12/18 08:27:32;;;;;;;0.52;0.45;;;;;;;;;;5059871;28;20059;-78
2023/12/18 08:29:58;;;;;;;0.47;0.47;;;;;;;;;;5074945;28;20078;-79
2023/12/18 08:32:25;;;;;;;0.43;0.40;;;;;;;;;;5059009;28;20112;-78
2023/12/18 08:34:51;;;;;;;1.00;0.60;;;;;;;;;;5060835;28;20025;-78
2023/12/18 08:37:18;;;;;;;0.45;0.45;;;;;;;;;;5065715;28;20091;-79
2023/12/18 08:39:44;;;;;;;0.40;0.40;;;;;;;;;;5063901;28;20084;-78
2023/12/18 08:42:10;;;;;;;0.60;0.50;;;;;;;;;;5067530;28;20037;-78
2023/12/18 08:44:36;;;;;;;1.42;0.80;;;;;;;;;;5060587;28;20084;-78
2023/12/18 08:47:02;;;;;;;0.57;0.40;;;;;;;;;;5059420;28;20092;-79
2023/12/18 08:49:28;;;;;;;0.40;0.40;;;;;;;;;;5075418;28;20017;-81
2023/12/18 08:51:54;;;;;;;1.00;0.70;;;;;;;;;;5059745;28;20028;-79
2023/12/18 08:54:20;;;;;;;0.82;0.45;;;;;;;;;;5060050;28;20112;-79
2023/12/18 08:56:47;;;;;;;0.43;0.40;;;;;;;;;;5065734;28;20025;-79
2023/12/18 08:59:14;;;;;;;0.75;0.47;;;;;;;;;;5060756;28;20029;-79
2023/12/18 09:01:40;;;;;;;0.40;0.40;;;;;;;;;;5058296;28;20112;-77
2023/12/18 09:04:06;;;;;;;0.60;0.40;;;;;;;;;;5060117;28;20017;-79
2023/12/18 09:06:35;;;;;;;2.17;0.73;;;;;;;;;;5059719;28;20116;-78
2023/12/18 09:09:01;;;;;;;1.05;0.73;;;;;;;;;;5059769;28;20021;-78
2023/12/18 09:11:29;;;;;;;0.75;0.75;;;;;;;;;;5060226;28;20025;-77
2023/12/18 09:13:56;;;;;;;0.63;0.50;;;;;;;;;;5060621;28;20344;-77
2023/12/18 09:16:23;;;;;;;1.48;0.77;;;;;;;;;;5059299;28;20403;-77
2023/12/18 09:18:49;;;;;;;1.13;0.82;;;;;;;;;;5056595;28;20096;-78
2023/12/18 09:21:15;;;;;;;0.75;0.55;;;;;;;;;;5059411;28;20031;-78
2023/12/18 09:23:41;;;;;;;0.60;0.60;;;;;;;;;;5057425;28;20021;-79
2023/12/18 09:26:07;;;;;;;0.60;0.50;;;;;;;;;;5055288;28;20029;-77
2023/12/18 09:28:34;;;;;;;0.47;0.32;;;;;;;;;;5074272;28;20028;-77
2023/12/18 09:31:01;;;;;;;0.65;0.50;;;;;;;;;;5058105;28;20558;-78
2023/12/18 09:33:27;;;;;;;0.80;0.50;;;;;;;;;;5058001;28;20024;-77
2023/12/18 09:35:53;;;;;;;0.60;0.60;;;;;;;;;;5057197;28;20021;-78
2023/12/18 09:38:19;;;;;;;0.60;0.60;;;;;;;;;;5056663;28;20072;-77
2023/12/18 09:40:45;;;;;;;0.43;0.43;;;;;;;;;;5063114;28;20043;-78
2023/12/18 09:43:18;;;;;;;1.30;0.57;;;;;;;;;;5056317;28;20029;-78
2023/12/18 09:45:49;;;;;;;1.30;0.95;;;;;;;;;;5057537;28;20028;-77
2023/12/18 09:48:16;;;;;;;1.02;0.82;;;;;;;;;;5057060;28;20384;-78
2023/12/18 09:50:44;;;;;;;1.73;0.63;;;;;;;;;;5054890;28;20498;-78
2023/12/18 09:53:12;;;;;;;1.75;0.75;;;;;;;;;;5056318;28;20025;-78
2023/12/18 09:55:38;;;;;;;0.98;0.82;;;;;;;;;;5073844;28;20025;-77
2023/12/18 09:58:04;;;;;;;0.77;0.70;;;;;;;;;;5055358;28;20084;-78
2023/12/18 10:00:31;;;;;;;1.08;0.70;;;;;;;;;;5057612;28;20565;-78
2023/12/18 10:02:58;;;;;;;0.80;0.70;;;;;;;;;;5060298;28;20100;-78
2023/12/18 10:05:24;;;;;;;1.25;0.80;;;;;;;;;;5057222;28;20021;-78
2023/12/18 10:07:51;;;;;;;1.63;0.95;;;;;;;;;;5061066;28;20021;-78
2023/12/18 10:10:18;;;;;;;1.08;0.93;;;;;;;;;;5061246;28;20071;-78
2023/12/18 10:12:44;;;;;;;0.80;0.70;;;;;;;;;;5070136;28;20037;-77
2023/12/18 10:15:14;;;;;;;1.42;1.00;;;;;;;;;;5077800;28;20096;-77
2023/12/18 10:17:41;;;;;;;0.52;0.52;;;;;;;;;;5078503;28;20025;-76
2023/12/18 10:20:07;;;;;;;1.52;0.65;;;;;;;;;;5078423;28;20032;-77
2023/12/18 10:22:33;;;;;;;0.45;0.45;;;;;;;;;;5077574;28;20029;-78
2023/12/18 10:25:00;;;;;;;0.75;0.75;;;;;;;;;;5078229;28;20043;-79
2023/12/18 10:27:26;;;;;;;0.93;0.70;;;;;;;;;;5072517;28;20029;-77
2023/12/18 10:29:54;;;;;;;0.65;0.65;;;;;;;;;;5052327;28;20113;-78
2023/12/18 10:32:21;;;;;;;0.70;0.70;;;;;;;;;;5060578;28;20021;-78
2023/12/18 10:34:47;;;;;;;0.57;0.50;;;;;;;;;;5071770;28;20098;-77
2023/12/18 10:37:14;;;;;;;1.38;0.98;;;;;;;;;;5076782;28;20064;-78
2023/12/18 10:39:41;;;;;;;0.70;0.70;;;;;;;;;;5077778;28;20052;-78
2023/12/18 10:42:13;;;;;;;0.95;0.90;;;;;;;;;;5078176;28;20050;-77
2023/12/18 10:44:41;;;;;;;1.67;0.90;;;;;;;;;;5078284;28;20025;-77
2023/12/18 10:47:07;;;;;;;1.58;0.90;;;;;;;;;;5077897;28;20043;-77
2023/12/18 10:49:34;;;;;;;4.72;1.35;;;;;;;;;;5078143;28;20001;-78
2023/12/18 10:52:01;;;;;;;1.20;0.80;;;;;;;;;;5078085;28;20040;-77
2023/12/18 10:54:28;;;;;;;2.35;1.08;;;;;;;;;;5077242;28;20033;-76
2023/12/18 10:56:55;;;;;;;2.67;1.00;;;;;;;;;;5070337;28;20089;-78
2023/12/18 10:59:22;;;;;;;0.77;0.77;;;;;;;;;;5066631;28;20021;-78
2023/12/18 11:01:48;;;;;;;1.85;0.80;;;;;;;;;;5055348;28;20080;-77
2023/12/18 11:04:16;;;;;;;4.18;1.20;;;;;;;;;;5073299;28;20012;-79
2023/12/18 11:06:43;;;;;;;1.65;1.00;;;;;;;;;;5069669;28;20120;-78
2023/12/18 11:09:09;;;;;;;1.17;1.08;;;;;;;;;;5066034;28;20543;-79
2023/12/18 11:11:36;;;;;;;2.72;1.25;;;;;;;;;;5078939;28;20089;-78
2023/12/18 11:14:17;;;;;;;1.13;0.90;;;;;;;;;;5072205;28;20028;-78
2023/12/18 11:16:43;;;;;;;1.67;1.17;;;;;;;;;;5069126;28;20116;-77
2023/12/18 11:19:28;;;;;;;1.95;1.00;;;;;;;;;;5076013;28;20025;-77
2023/12/18 11:21:54;;;;;;;0.65;0.65;;;;;;;;;;5076108;28;20039;-77
2023/12/18 11:24:20;;;;;;;2.33;1.05;;;;;;;;;;5075907;28;20032;-77
2023/12/18 11:26:47;;;;;;;1.00;1.00;;;;;;;;;;5071883;28;20114;-79
2023/12/18 11:29:31;;;;;;;1.55;0.88;;;;;;;;;;5072751;28;20033;-78
2023/12/18 11:31:58;;;;;;;0.88;0.68;;;;;;;;;;5065574;28;20029;-78
2023/12/18 11:34:25;;;;;;;1.25;0.85;;;;;;;;;;5061817;28;20447;-79
2023/12/18 11:36:51;;;;;;;1.05;0.80;;;;;;;;;;5058220;28;20105;-78
2023/12/18 11:39:20;;;;;;;0.77;0.65;;;;;;;;;;5073684;28;20029;-79
2023/12/18 11:41:47;;;;;;;2.75;0.93;;;;;;;;;;5059508;28;20027;-78
2023/12/18 11:44:15;;;;;;;3.30;0.90;;;;;;;;;;5058316;28;20184;-78
2023/12/18 11:46:43;;;;;;;2.47;1.27;;;;;;;;;;5058384;28;20052;-78
2023/12/18 11:49:09;;;;;;;3.30;1.75;;;;;;;;;;5064198;28;20063;-79
2023/12/18 11:51:41;;;;;;;1.40;1.25;;;;;;;;;;5062713;28;20155;-78
2023/12/18 11:54:07;;;;;;;2.95;1.10;;;;;;;;;;5058631;28;20384;-78
2023/12/18 11:56:43;;;;;;;1.98;1.08;;;;;;;;;;5054057;28;20025;-79
2023/12/18 11:59:09;;;;;;;2.22;1.20;;;;;;;;;;5054367;28;20029;-78
2023/12/18 12:01:37;;;;;;;2.30;1.40;;;;;;;;;;5058444;28;20035;-79
2023/12/18 12:04:03;;;;;;;1.40;0.88;;;;;;;;;;5058208;28;20071;-78
2023/12/18 12:06:29;;;;;;;1.83;1.10;;;;;;;;;;5050630;28;20034;-79
2023/12/18 12:08:55;;;;;;;1.25;1.00;;;;;;;;;;5059242;28;20024;-78
2023/12/18 12:11:22;;;;;;;1.15;0.90;;;;;;;;;;5056242;28;20016;-77
2023/12/18 12:13:53;;;;;;;0.80;0.73;;;;;;;;;;5058739;28;20047;-79
2023/12/18 12:16:20;;;;;;;0.88;0.77;;;;;;;;;;5056304;28;20048;-79
2023/12/18 12:18:47;;;;;;;0.75;0.65;;;;;;;;;;5060817;28;20067;-78
2023/12/18 12:21:13;;;;;;;0.77;0.77;;;;;;;;;;5059598;28;20527;-78
2023/12/18 12:23:39;;;;;;;1.48;0.80;;;;;;;;;;5060654;28;20035;-78
2023/12/18 12:26:06;;;;;;;2.25;1.08;;;;;;;;;;5064693;28;20025;-78
2023/12/18 12:28:32;;;;;;;0.70;0.60;;;;;;;;;;5063157;28;20036;-79
2023/12/18 12:31:03;;;;;;;1.13;0.80;;;;;;;;;;5058246;28;20024;-77
2023/12/18 12:33:39;;;;;;;0.85;0.70;;;;;;;;;;5057525;28;20099;-77
2023/12/18 12:36:05;;;;;;;0.73;0.73;;;;;;;;;;5057761;28;20113;-78
2023/12/18 12:38:31;;;;;;;0.45;0.45;;;;;;;;;;5057539;28;20020;-78
2023/12/18 12:40:59;;;;;;;0.63;0.60;;;;;;;;;;5060080;28;20027;-79
2023/12/18 12:43:25;;;;;;;0.63;0.57;;;;;;;;;;5057725;28;20078;-78
2023/12/18 12:45:52;;;;;;;1.00;0.70;;;;;;;;;;5057339;28;20025;-79
2023/12/18 12:48:18;;;;;;;1.13;0.80;;;;;;;;;;5058682;28;20018;-77
2023/12/18 12:50:44;;;;;;;0.98;0.60;;;;;;;;;;5068277;28;20104;-77
2023/12/18 12:53:10;;;;;;;0.88;0.80;;;;;;;;;;5054136;28;20033;-79
2023/12/18 12:55:40;;;;;;;0.77;0.63;;;;;;;;;;5058885;28;20048;-79
2023/12/18 12:58:07;;;;;;;0.50;0.50;;;;;;;;;;5075479;28;20475;-77
2023/12/18 13:00:33;;;;;;;0.93;0.70;;;;;;;;;;5056799;28;20132;-79
2023/12/18 13:02:59;;;;;;;0.85;0.60;;;;;;;;;;5057614;28;20022;-78
2023/12/18 13:05:25;;;;;;;1.30;0.70;;;;;;;;;;5059409;28;20025;-79
2023/12/18 13:07:52;;;;;;;0.60;0.57;;;;;;;;;;5058825;28;20033;-79
2023/12/18 13:10:19;;;;;;;1.35;0.80;;;;;;;;;;5060983;28;20017;-77
2023/12/18 13:12:45;;;;;;;0.68;0.60;;;;;;;;;;5071290;28;20025;-78
2023/12/18 13:15:11;;;;;;;1.20;1.10;;;;;;;;;;5057581;28;20033;-78
2023/12/18 13:17:37;;;;;;;1.65;1.05;;;;;;;;;;5056690;28;20024;-80
2023/12/18 13:20:06;;;;;;;1.30;0.88;;;;;;;;;;5063976;28;20036;-77
2023/12/18 13:22:32;;;;;;;1.98;1.25;;;;;;;;;;5049719;28;20021;-79
2023/12/18 13:24:59;;;;;;;1.73;0.95;;;;;;;;;;5056085;28;20051;-79
2023/12/18 13:27:26;;;;;;;2.65;1.00;;;;;;;;;;5056360;28;20029;-79
2023/12/18 13:29:53;;;;;;;1.15;0.80;;;;;;;;;;5057427;28;20127;-78
2023/12/18 13:32:20;;;;;;;1.23;0.80;;;;;;;;;;5067096;28;20400;-79
2023/12/18 13:34:47;;;;;;;0.80;0.80;;;;;;;;;;5059238;28;20017;-78
2023/12/18 13:37:15;;;;;;;0.70;0.70;;;;;;;;;;5060143;28;20033;-78
2023/12/18 13:39:42;;;;;;;1.42;0.80;;;;;;;;;;5063215;28;20025;-79
2023/12/18 13:42:09;;;;;;;1.30;0.68;;;;;;;;;;5060443;28;20637;-78
2023/12/18 13:44:35;;;;;;;1.52;0.73;;;;;;;;;;5062638;28;20017;-79
2023/12/18 13:47:01;;;;;;;0.80;0.70;;;;;;;;;;5077015;28;20017;-79
2023/12/18 13:49:27;;;;;;;0.88;0.73;;;;;;;;;;5068181;28;20060;-78
2023/12/18 13:51:53;;;;;;;0.50;0.50;;;;;;;;;;5077362;28;20018;-79
2023/12/18 13:54:21;;;;;;;2.70;0.60;;;;;;;;;;5060454;28;20029;-78
2023/12/18 13:56:47;;;;;;;1.25;0.70;;;;;;;;;;5061365;28;20506;-78
2023/12/18 13:59:13;;;;;;;0.60;0.60;;;;;;;;;;5083170;28;20036;-78
2023/12/18 14:01:40;;;;;;;0.82;0.80;;;;;;;;;;5069305;28;20067;-78
2023/12/18 14:04:06;;;;;;;1.17;0.82;;;;;;;;;;5062343;28;20129;-78
2023/12/18 14:06:32;;;;;;;0.80;0.63;;;;;;;;;;5064415;28;20051;-78
2023/12/18 14:08:59;;;;;;;1.17;0.80;;;;;;;;;;5051757;28;20017;-76
2023/12/18 14:11:26;;;;;;;0.88;0.77;;;;;;;;;;5060125;28;20017;-78
2023/12/18 14:13:53;;;;;;;1.15;0.70;;;;;;;;;;5058670;28;20495;-77
2023/12/18 14:16:19;;;;;;;0.73;0.73;;;;;;;;;;5057563;28;20472;-78
2023/12/18 14:18:51;;;;;;;0.55;0.55;;;;;;;;;;5059554;28;20033;-78
2023/12/18 14:21:17;;;;;;;1.73;0.90;;;;;;;;;;5060028;28;20112;-77
2023/12/18 14:23:43;;;;;;;0.52;0.43;;;;;;;;;;5062243;28;20056;-77
2023/12/18 14:26:09;;;;;;;1.33;0.73;;;;;;;;;;5067376;28;20176;-79
2023/12/18 14:28:36;;;;;;;0.57;0.57;;;;;;;;;;5065984;28;20062;-77
2023/12/18 14:31:02;;;;;;;2.15;0.52;;;;;;;;;;5063331;28;20115;-76
2023/12/18 14:33:28;;;;;;;0.55;0.55;;;;;;;;;;5067035;28;20032;-77
2023/12/18 14:35:55;;;;;;;0.75;0.40;;;;;;;;;;5063925;28;20036;-78
2023/12/18 14:38:21;;;;;;;1.58;0.60;;;;;;;;;;5064677;28;20582;-80
2023/12/18 14:40:47;;;;;;;2.53;0.70;;;;;;;;;;5066264;28;20033;-79